Tasman Crusader — A8NQ7 — position and weather

sailwx.info

Track history (hours):
 
Tides and Currents Weather Stations Pressure Air Temp Water Temp Dewpoint Dewpoint Depression Visibility Wind Speed Wind Dir Waves Ship Positions

Tasman Crusader

Last reported at 2015-Feb-16 05:33 UTC. Time now 2015-Feb-27 04:10 UTC.
Position N 28°44' W 116°07'.
Warning: this ship's position is 10 days out of date.

Length 186 m; draft 9 m.

Type: Cargo ship. MMSI: 636091434.

Date/timePositionNaut miles runAvg speedWind from/ knotsBaromVisibWave heightAir tempDewpointWater temp
2015-Feb-16 05:33N 28°44' W 116°07'6420.3
2015-Feb-16 02:23N 29°44' W 116°32'2520.3
2015-Feb-16 01:10N 30°07' W 116°42'4020.2
2015-Feb-15 23:13N 30°45' W 116°57'3920.3
2015-Feb-15 21:17N 31°22' W 117°13'1520.4
2015-Feb-15 20:34N 31°35' W 117°18'2120.7
2015-Feb-15 19:33N 31°55' W 117°27'2020.4
2015-Feb-15 18:33N 32°14' W 117°35'1716.8
2015-Feb-15 17:33N 32°30' W 117°41'1514.9
2015-Feb-15 16:33N 32°44' W 117°48'1514.7
2015-Feb-15 15:33N 32°57' W 117°55'1313.3
2015-Feb-15 14:33N 33°10' W 118°01'1211.7
2015-Feb-15 13:33N 33°20' W 118°07'1211.7
2015-Feb-15 12:33N 33°31' W 118°11'1110.8
2015-Feb-15 11:33N 33°42' W 118°11'2 2.4
2015-Feb-15 10:33N 33°44' W 118°10'0 0.0
2015-Feb-15 09:33N 33°44' W 118°10'0 0.1
2015-Feb-15 08:33N 33°44' W 118°10'0 0.1
2015-Feb-15 07:33N 33°44' W 118°10'0 0.0
2015-Feb-15 06:33N 33°44' W 118°10'0 0.0
2015-Feb-15 05:33N 33°44' W 118°10'0 0.2
2015-Feb-15 04:33N 33°44' W 118°10'0 0.1
2015-Feb-15 03:33N 33°44' W 118°10'0 0.1
2015-Feb-15 02:33N 33°44' W 118°10'0 0.1
2015-Feb-15 01:24N 33°44' W 118°10'0 0.1
2015-Feb-15 00:33N 33°44' W 118°10'0 0.1
2015-Feb-14 23:33N 33°44' W 118°10'0 0.0
2015-Feb-14 22:33N 33°44' W 118°10'0 0.2
2015-Feb-14 21:30N 33°44' W 118°10'6 5.8
2015-Feb-14 20:33N 33°39' W 118°12'7 6.9
2015-Feb-14 19:32N 33°36' W 118°20'  
2015-Feb-11 17:33N 33°32' W 118°08'10 9.9
2015-Feb-11 16:33N 33°23' W 118°04'1010.3
2015-Feb-11 15:33N 33°13' W 117°58'1010.2
2015-Feb-11 14:33N 33°04' W 117°55'1010.3
2015-Feb-11 13:33N 32°54' W 117°51'1010.0
2015-Feb-11 12:34N 32°45' W 117°47'1010.3
2015-Feb-11 11:33N 32°35' W 117°43'1010.3
2015-Feb-11 10:33N 32°25' W 117°39'1010.2
2015-Feb-11 09:33N 32°15' W 117°35'1010.0
2015-Feb-11 08:33N 32°06' W 117°31'10 9.7
2015-Feb-11 07:33N 31°57' W 117°27'10 9.6
2015-Feb-11 06:33N 31°48' W 117°23'1110.4
2015-Feb-11 05:33N 31°38' W 117°19'1010.4
2015-Feb-11 04:33N 31°28' W 117°15'1010.4
2015-Feb-11 03:33N 31°18' W 117°11'1210.9
2015-Feb-11 02:29N 31°07' W 117°07'1011.1
2015-Feb-11 01:33N 30°58' W 117°03'1110.7
2015-Feb-11 00:33N 30°47' W 116°58'1010.4
2015-Feb-10 23:33N 30°38' W 116°55'1010.4
2015-Feb-10 22:33N 30°28' W 116°50'1010.5
2015-Feb-10 21:33N 30°18' W 116°46'1110.8
2015-Feb-10 20:33N 30°08' W 116°42'1210.7
2015-Feb-10 19:24N 29°56' W 116°38'8 9.4
2015-Feb-10 18:32N 29°49' W 116°34'1313.0
2015-Feb-10 17:33N 29°37' W 116°29'4013.2
2015-Feb-10 14:33N 28°59' W 116°14'1212.5
2015-Feb-10 13:33N 28°47' W 116°09'1412.4
2015-Feb-10 12:27N 28°34' W 116°04'1112.3
2015-Feb-10 11:33N 28°24' W 115°60'1312.4
2015-Feb-10 10:32N 28°12' W 115°55'  
Track history (hours):
 
Tides and Currents Weather Stations Pressure Air Temp Water Temp Dewpoint Dewpoint Depression Visibility Wind Speed Wind Dir Waves Ship Positions

Tasman Crusader

Last reported at 2015-Feb-16 05:33 UTC. Time now 2015-Feb-27 04:10 UTC.
Position N 28°44' W 116°07'.
Warning: this ship's position is 10 days out of date.

Length 186 m; draft 9 m.

Type: Cargo ship. MMSI: 636091434.

Date/timePositionNaut miles runAvg speedWind from/ knotsBaromVisibWave heightAir tempDewpointWater temp
2015-Feb-16 05:33N 28°44' W 116°07'6420.3
2015-Feb-16 02:23N 29°44' W 116°32'2520.3
2015-Feb-16 01:10N 30°07' W 116°42'4020.2
2015-Feb-15 23:13N 30°45' W 116°57'3920.3
2015-Feb-15 21:17N 31°22' W 117°13'1520.4
2015-Feb-15 20:34N 31°35' W 117°18'2120.7
2015-Feb-15 19:33N 31°55' W 117°27'2020.4
2015-Feb-15 18:33N 32°14' W 117°35'1716.8
2015-Feb-15 17:33N 32°30' W 117°41'1514.9
2015-Feb-15 16:33N 32°44' W 117°48'1514.7
2015-Feb-15 15:33N 32°57' W 117°55'1313.3
2015-Feb-15 14:33N 33°10' W 118°01'1211.7
2015-Feb-15 13:33N 33°20' W 118°07'1211.7
2015-Feb-15 12:33N 33°31' W 118°11'1110.8
2015-Feb-15 11:33N 33°42' W 118°11'2 2.4
2015-Feb-15 10:33N 33°44' W 118°10'0 0.0
2015-Feb-15 09:33N 33°44' W 118°10'0 0.1
2015-Feb-15 08:33N 33°44' W 118°10'0 0.1
2015-Feb-15 07:33N 33°44' W 118°10'0 0.0
2015-Feb-15 06:33N 33°44' W 118°10'0 0.0
2015-Feb-15 05:33N 33°44' W 118°10'0 0.2
2015-Feb-15 04:33N 33°44' W 118°10'0 0.1
2015-Feb-15 03:33N 33°44' W 118°10'0 0.1
2015-Feb-15 02:33N 33°44' W 118°10'0 0.1
2015-Feb-15 01:24N 33°44' W 118°10'0 0.1
2015-Feb-15 00:33N 33°44' W 118°10'0 0.1
2015-Feb-14 23:33N 33°44' W 118°10'0 0.0
2015-Feb-14 22:33N 33°44' W 118°10'0 0.2
2015-Feb-14 21:30N 33°44' W 118°10'6 5.8
2015-Feb-14 20:33N 33°39' W 118°12'7 6.9
2015-Feb-14 19:32N 33°36' W 118°20'  
2015-Feb-11 17:33N 33°32' W 118°08'10 9.9
2015-Feb-11 16:33N 33°23' W 118°04'1010.3
2015-Feb-11 15:33N 33°13' W 117°58'1010.2
2015-Feb-11 14:33N 33°04' W 117°55'1010.3
2015-Feb-11 13:33N 32°54' W 117°51'1010.0
2015-Feb-11 12:34N 32°45' W 117°47'1010.3
2015-Feb-11 11:33N 32°35' W 117°43'1010.3
2015-Feb-11 10:33N 32°25' W 117°39'1010.2
2015-Feb-11 09:33N 32°15' W 117°35'1010.0
2015-Feb-11 08:33N 32°06' W 117°31'10 9.7
2015-Feb-11 07:33N 31°57' W 117°27'10 9.6
2015-Feb-11 06:33N 31°48' W 117°23'1110.4
2015-Feb-11 05:33N 31°38' W 117°19'1010.4
2015-Feb-11 04:33N 31°28' W 117°15'1010.4
2015-Feb-11 03:33N 31°18' W 117°11'1210.9
2015-Feb-11 02:29N 31°07' W 117°07'1011.1
2015-Feb-11 01:33N 30°58' W 117°03'1110.7
2015-Feb-11 00:33N 30°47' W 116°58'1010.4
2015-Feb-10 23:33N 30°38' W 116°55'1010.4
2015-Feb-10 22:33N 30°28' W 116°50'1010.5
2015-Feb-10 21:33N 30°18' W 116°46'1110.8
2015-Feb-10 20:33N 30°08' W 116°42'1210.7
2015-Feb-10 19:24N 29°56' W 116°38'8 9.4
2015-Feb-10 18:32N 29°49' W 116°34'1313.0
2015-Feb-10 17:33N 29°37' W 116°29'4013.2
2015-Feb-10 14:33N 28°59' W 116°14'1212.5
2015-Feb-10 13:33N 28°47' W 116°09'1412.4
2015-Feb-10 12:27N 28°34' W 116°04'1112.3
2015-Feb-10 11:33N 28°24' W 115°60'1312.4
2015-Feb-10 10:32N 28°12' W 115°55'  

Dump ship's entire track history